Time;durP1;ratioP1;P1;durP2;ratioP2;P2;SDS_P1;SDS_P2;PMS_P1;PMS_P2;Temp;Humidity;BMP_temperature;BMP_pressure;BME280_temperature;BME280_humidity;BME280_pressure;Samples;Min_cycle;Max_cycle;Signal;HPM_P1;HPM_P2
2021/07/20 00:00:37;;;;;;;12.23;8.73;;;;;;;31.37;49.64;100774.98;1638946;87;21154;-47
2021/07/20 00:03:07;;;;;;;12.78;8.75;;;;;;;31.37;49.35;100772.29;1639681;86;21075;-49
2021/07/20 00:05:32;;;;;;;10.60;9.35;;;;;;;31.34;49.39;100764.57;1639957;87;21055;-48
2021/07/20 00:08:01;;;;;;;11.68;8.85;;;;;;;31.32;49.54;100761.20;1640839;87;21084;-48
2021/07/20 00:10:36;;;;;;;10.18;8.25;;;;;;;31.31;49.75;100760.86;1638288;87;21079;-48
2021/07/20 00:13:04;;;;;;;9.35;8.48;;;;;;;31.28;49.98;100755.83;1633617;87;21562;-48
2021/07/20 00:15:34;;;;;;;11.05;8.98;;;;;;;31.28;50.15;100761.20;1639330;87;21527;-49
2021/07/20 00:18:14;;;;;;;10.10;8.33;;;;;;;31.27;50.25;100758.16;1639166;87;21058;-50
2021/07/20 00:20:43;;;;;;;10.28;9.08;;;;;;;31.25;50.19;100756.14;1637118;86;21174;-48
2021/07/20 00:23:10;;;;;;;12.00;9.13;;;;;;;31.24;50.38;100757.17;1637399;86;21570;-47
2021/07/20 00:25:39;;;;;;;10.32;9.20;;;;;;;31.22;50.48;100764.03;1637549;87;21508;-48
2021/07/20 00:28:06;;;;;;;9.63;8.58;;;;;;;31.23;50.42;100762.19;1639404;87;21081;-48
2021/07/20 00:30:32;;;;;;;9.50;8.48;;;;;;;31.23;50.53;100756.81;1640249;87;21087;-51
2021/07/20 00:32:59;;;;;;;13.60;10.72;;;;;;;31.22;50.52;100752.46;1640207;86;21568;-52
2021/07/20 00:35:26;;;;;;;14.33;9.78;;;;;;;31.21;50.50;100744.04;1616275;87;21081;-48
2021/07/20 00:37:54;;;;;;;10.63;9.03;;;;;;;31.20;50.40;100743.72;1641548;86;21072;-49
2021/07/20 00:40:21;;;;;;;9.70;8.30;;;;;;;31.20;50.42;100742.37;1634558;87;21496;-48
2021/07/20 00:42:49;;;;;;;9.70;8.75;;;;;;;31.20;50.34;100732.97;1636887;86;21043;-49
2021/07/20 00:45:17;;;;;;;10.95;8.78;;;;;;;31.20;50.50;100741.03;1639697;87;21479;-48
2021/07/20 00:47:45;;;;;;;12.82;8.98;;;;;;;31.19;50.51;100742.02;1636045;87;20992;-48
2021/07/20 00:50:20;;;;;;;9.63;8.73;;;;;;;31.16;50.26;100737.00;1646925;86;21047;-49
2021/07/20 00:52:47;;;;;;;12.35;8.60;;;;;;;31.14;50.21;100737.67;1637001;87;21044;-50
2021/07/20 00:55:15;;;;;;;9.85;8.93;;;;;;;31.13;50.21;100742.69;1638137;87;21119;-48
2021/07/20 00:57:42;;;;;;;11.28;8.73;;;;;;;31.11;50.21;100737.98;1640693;86;21071;-50
2021/07/20 01:00:15;;;;;;;13.65;9.33;;;;;;;31.10;50.35;100738.97;1641592;87;21588;-49
2021/07/20 01:02:43;;;;;;;10.75;8.90;;;;;;;31.10;50.35;100733.59;1636589;87;21350;-48
2021/07/20 01:05:20;;;;;;;10.05;9.13;;;;;;;31.10;50.58;100721.00;1641155;86;21647;-48
2021/07/20 01:07:48;;;;;;;11.18;8.25;;;;;;;31.11;50.56;100727.23;1623125;88;21114;-47
2021/07/20 01:10:17;;;;;;;10.32;8.80;;;;;;;31.11;50.67;100728.58;1618226;87;21054;-49
2021/07/20 01:12:44;;;;;;;9.68;8.78;;;;;;;31.10;50.88;100741.66;1617535;87;21169;-47
2021/07/20 01:15:15;;;;;;;25.95;11.35;;;;;;;31.09;50.86;100730.09;1619485;87;21129;-48
2021/07/20 01:17:44;;;;;;;11.73;9.05;;;;;;;31.09;50.65;100733.28;1619491;88;21090;-48
2021/07/20 01:20:14;;;;;;;10.48;9.00;;;;;;;31.07;50.48;100733.45;1618781;88;21054;-49
2021/07/20 01:22:53;;;;;;;11.38;8.70;;;;;;;31.07;50.52;100732.59;1620767;87;21069;-48
2021/07/20 01:25:21;;;;;;;9.83;8.43;;;;;;;31.05;50.35;100727.89;1615726;88;21038;-48
2021/07/20 01:27:51;;;;;;;9.83;8.70;;;;;;;31.03;50.44;100731.25;1621000;87;21632;-53
2021/07/20 01:30:18;;;;;;;10.03;9.03;;;;;;;31.01;50.49;100727.89;1607791;87;21111;-49
2021/07/20 01:32:45;;;;;;;9.65;8.85;;;;;;;30.99;50.53;100721.84;1605206;88;21037;-51
2021/07/20 01:35:13;;;;;;;12.10;9.43;;;;;;;30.97;50.53;100714.45;1604011;87;21129;-48
2021/07/20 01:37:43;;;;;;;9.85;9.03;;;;;;;30.94;50.66;100710.73;1603252;87;21061;-49
2021/07/20 01:40:12;;;;;;;19.82;10.10;;;;;;;30.91;50.84;100713.27;1609541;88;21068;-48
2021/07/20 01:42:44;;;;;;;11.90;10.30;;;;;;;30.89;51.00;100711.22;1605137;88;21006;-49
2021/07/20 01:45:13;;;;;;;11.28;10.08;;;;;;;30.88;51.19;100716.27;1602219;87;21061;-47
2021/07/20 01:47:44;;;;;;;10.68;9.58;;;;;;;30.86;51.30;100716.09;1604504;87;21564;-48
2021/07/20 01:50:14;;;;;;;;;;;;;;;30.85;51.46;100719.80;1610050;88;21047;-48
2021/07/20 01:52:42;;;;;;;10.85;9.75;;;;;;;30.82;51.56;100717.39;1600651;89;20138;-49
2021/07/20 01:55:11;;;;;;;11.40;10.05;;;;;;;30.79;51.59;100711.02;1607202;87;21069;-48
2021/07/20 01:57:38;;;;;;;17.57;10.00;;;;;;;30.77;51.75;100714.38;1607133;89;21545;-47
2021/07/20 02:00:15;;;;;;;12.18;10.10;;;;;;;30.74;51.82;100714.19;1595381;89;21593;-50
2021/07/20 02:08:45;;;;;;;17.55;10.18;;;;;;;30.66;52.13;100707.95;1589464;90;21171;-49
2021/07/20 02:11:18;;;;;;;11.97;9.80;;;;;;;30.65;52.34;100704.91;1583736;90;21067;-48
2021/07/20 02:13:53;;;;;;;11.65;10.15;;;;;;;30.62;52.37;100702.56;1556059;91;21117;-51
2021/07/20 02:16:29;;;;;;;12.65;9.85;;;;;;;30.61;52.44;100702.20;1551434;91;21045;-48
2021/07/20 02:19:15;;;;;;;11.80;10.13;;;;;;;30.60;52.45;100701.88;1551620;91;21231;-49
2021/07/20 02:21:53;;;;;;;11.43;10.25;;;;;;;30.60;52.53;100709.94;1539923;92;21084;-47
2021/07/20 02:24:26;;;;;;;12.90;10.13;;;;;;;30.59;52.68;100702.88;1527888;93;21100;-49
2021/07/20 02:26:53;;;;;;;13.62;10.30;;;;;;;30.58;52.73;100701.20;1536814;92;21106;-50
2021/07/20 02:29:22;;;;;;;13.25;11.18;;;;;;;30.58;52.87;100695.84;1540159;92;21562;-52
2021/07/20 02:31:53;;;;;;;15.60;11.18;;;;;;;30.61;52.99;100696.84;1528474;92;21099;-48
2021/07/20 02:34:19;;;;;;;13.60;10.65;;;;;;;30.62;53.17;100695.84;1520696;93;21144;-48
2021/07/20 02:36:48;;;;;;;11.53;10.25;;;;;;;30.65;53.20;100697.70;1522466;92;21098;-48
2021/07/20 02:39:16;;;;;;;13.22;10.25;;;;;;;30.67;53.23;100692.16;1537927;92;21162;-49
2021/07/20 02:41:44;;;;;;;12.53;11.22;;;;;;;30.69;53.25;100700.89;1520887;93;21103;-48
2021/07/20 02:44:11;;;;;;;13.08;11.03;;;;;;;30.70;53.27;100699.90;1505233;94;21088;-48
2021/07/20 02:46:38;;;;;;;14.70;10.70;;;;;;;30.72;53.37;100695.20;1543507;91;21088;-48
2021/07/20 02:49:05;;;;;;;14.78;10.70;;;;;;;30.73;53.45;100702.27;1516148;94;21088;-49
2021/07/20 02:51:32;;;;;;;13.78;11.10;;;;;;;30.75;53.47;100701.08;1541546;92;21093;-52
2021/07/20 02:53:59;;;;;;;13.80;11.08;;;;;;;30.76;53.46;100696.55;1534133;92;21107;-49
2021/07/20 02:56:27;;;;;;;14.18;10.68;;;;;;;30.76;53.49;100704.61;1535177;92;21083;-49
2021/07/20 02:59:03;;;;;;;16.23;11.08;;;;;;;30.76;53.54;100700.59;1521545;93;21088;-49
2021/07/20 03:01:35;;;;;;;12.58;10.55;;;;;;;30.78;53.60;100707.48;1524163;93;21076;-48
2021/07/20 03:04:05;;;;;;;12.18;10.98;;;;;;;30.79;53.78;100706.98;1540221;92;21157;-49
2021/07/20 03:06:32;;;;;;;12.15;11.05;;;;;;;30.79;53.92;100709.67;1549072;92;21041;-53
2021/07/20 03:08:59;;;;;;;16.50;10.93;;;;;;;30.79;53.87;100706.98;1542629;92;21108;-49
2021/07/20 03:11:44;;;;;;;13.55;11.35;;;;;;;30.78;54.00;100701.27;1588019;88;21072;-53
2021/07/20 03:14:15;;;;;;;16.65;12.03;;;;;;;30.79;54.12;100702.95;1611932;88;21654;-54
2021/07/20 03:16:43;;;;;;;;;;;;;;;30.79;54.18;100699.74;1567492;90;21044;-53
2021/07/20 03:19:11;;;;;;;14.10;11.83;;;;;;;30.80;54.14;100700.59;1596339;89;20141;-48
2021/07/20 03:21:40;;;;;;;15.85;10.95;;;;;;;30.79;54.20;100698.92;1589425;89;21132;-48
2021/07/20 03:24:08;;;;;;;17.57;11.68;;;;;;;30.79;54.32;100706.98;1580297;89;21014;-49
2021/07/20 03:26:36;;;;;;;15.58;11.80;;;;;;;30.78;54.48;100708.83;1596608;89;21040;-49
2021/07/20 03:29:06;;;;;;;18.05;11.75;;;;;;;30.79;54.60;100713.70;1623333;87;21059;-49
2021/07/20 03:31:34;;;;;;;14.33;12.05;;;;;;;30.79;54.70;100716.39;1589476;88;21150;-49
2021/07/20 03:34:02;;;;;;;13.93;11.53;;;;;;;30.80;54.70;100714.03;1616207;87;21026;-49
2021/07/20 03:36:31;;;;;;;20.75;11.73;;;;;;;30.82;54.80;100718.23;1571083;89;21054;-48
2021/07/20 03:38:59;;;;;;;14.87;11.70;;;;;;;30.86;54.90;100717.43;1594749;88;21065;-48
2021/07/20 03:41:27;;;;;;;15.00;12.15;;;;;;;30.94;54.84;100721.48;1619730;87;21057;-49
2021/07/20 03:43:55;;;;;;;14.43;12.25;;;;;;;31.04;54.74;100725.70;1575476;89;21133;-49
2021/07/20 03:46:23;;;;;;;13.62;11.93;;;;;;;31.21;54.45;100729.26;1567364;89;21578;-48
2021/07/20 03:48:52;;;;;;;17.02;11.33;;;;;;;31.47;53.91;100738.56;1575370;89;21510;-49
2021/07/20 03:51:23;;;;;;;12.05;10.72;;;;;;;31.76;53.02;100735.67;1579797;89;21042;-48
2021/07/20 03:53:50;;;;;;;13.50;11.35;;;;;;;32.09;52.27;100733.80;1565337;89;21105;-49
2021/07/20 03:56:18;;;;;;;14.15;11.43;;;;;;;32.39;51.44;100737.59;1570100;89;21546;-49
2021/07/20 03:58:47;;;;;;;19.17;11.10;;;;;;;32.61;50.84;100731.46;1543527;91;21099;-50
2021/07/20 04:01:14;;;;;;;13.08;11.78;;;;;;;32.75;50.41;100730.71;1592979;89;21117;-49
2021/07/20 04:03:42;;;;;;;12.55;11.12;;;;;;;32.86;50.08;100738.41;1599125;88;21105;-49
2021/07/20 04:06:12;;;;;;;12.90;11.55;;;;;;;32.93;49.90;100739.39;1573301;89;21061;-48
2021/07/20 04:08:42;;;;;;;15.60;12.33;;;;;;;32.96;49.74;100733.62;1523829;92;21637;-50
2021/07/20 04:11:11;;;;;;;15.25;13.18;;;;;;;32.96;49.58;100732.78;1537933;92;21602;-49
2021/07/20 04:13:40;;;;;;;13.30;11.93;;;;;;;32.93;49.63;100738.05;1516455;91;21189;-49
2021/07/20 04:16:16;;;;;;;17.32;12.65;;;;;;;32.86;49.75;100735.72;1506107;93;21801;-49
2021/07/20 04:18:43;;;;;;;13.93;12.55;;;;;;;32.78;49.96;100735.77;1504630;94;21685;-50
2021/07/20 04:21:12;;;;;;;20.05;12.35;;;;;;;32.69;50.12;100733.61;1514935;92;21109;-53
2021/07/20 04:23:38;;;;;;;84.45;17.73;;;;;;;32.60;50.25;100740.58;1517553;92;21213;-49
2021/07/20 04:26:13;;;;;;;22.98;13.43;;;;;;;32.50;50.63;100739.95;1534121;92;21141;-49
2021/07/20 04:28:41;;;;;;;24.82;12.95;;;;;;;32.39;51.03;100740.28;1555235;91;21639;-53
2021/07/20 04:31:09;;;;;;;42.98;15.83;;;;;;;32.28;51.35;100733.91;1556731;91;21773;-51
2021/07/20 04:33:37;;;;;;;158.27;21.02;;;;;;;32.20;51.59;100737.98;1553309;91;21152;-48
2021/07/20 04:36:23;;;;;;;26.27;13.65;;;;;;;32.13;51.66;100741.05;1563780;90;21140;-49
2021/07/20 04:38:51;;;;;;;16.48;12.13;;;;;;;32.07;51.89;100742.05;1547553;90;21092;-49
2021/07/20 04:41:20;;;;;;;17.87;14.18;;;;;;;32.02;52.12;100746.28;1575341;90;21102;-49
2021/07/20 04:43:48;;;;;;;16.05;12.37;;;;;;;31.98;52.30;100741.72;1562221;91;21102;-50
2021/07/20 04:46:17;;;;;;;14.75;13.22;;;;;;;31.94;52.47;100741.73;1588234;88;21080;-51
2021/07/20 04:48:45;;;;;;;19.25;13.60;;;;;;;31.91;52.72;100746.09;1623965;88;21498;-48
2021/07/20 04:51:17;;;;;;;19.40;13.08;;;;;;;31.89;52.77;100745.42;1585473;89;21049;-51
2021/07/20 04:53:44;;;;;;;16.32;13.25;;;;;;;31.87;52.96;100744.75;1603425;87;21049;-49
2021/07/20 04:56:11;;;;;;;21.30;13.45;;;;;;;31.87;53.01;100743.41;1600677;88;21034;-49
2021/07/20 04:58:38;;;;;;;20.80;13.38;;;;;;;31.87;53.05;100747.45;1628402;87;21591;-53
2021/07/20 05:01:05;;;;;;;19.48;13.00;;;;;;;31.89;53.14;100751.30;1641276;87;21027;-53
2021/07/20 05:03:34;;;;;;;18.45;13.40;;;;;;;31.90;53.20;100753.81;1619761;87;21094;-49
2021/07/20 05:06:00;;;;;;;22.65;13.72;;;;;;;31.92;53.33;100753.67;1642215;87;21075;-50
2021/07/20 05:08:30;;;;;;;16.85;13.05;;;;;;;31.93;53.22;100760.25;1619065;87;21084;-54
2021/07/20 05:10:59;;;;;;;22.25;13.93;;;;;;;31.90;53.32;100756.51;1635313;86;21077;-49
2021/07/20 05:13:34;;;;;;;18.00;13.53;;;;;;;31.91;53.30;100752.82;1627730;86;21042;-49
2021/07/20 05:16:05;;;;;;;18.35;13.68;;;;;;;31.92;53.47;100746.94;1612050;88;21118;-50
2021/07/20 05:18:35;;;;;;;22.30;14.40;;;;;;;31.92;53.37;100738.87;1608090;88;21533;-48
2021/07/20 05:21:03;;;;;;;18.98;13.93;;;;;;;31.97;53.33;100737.86;1598916;88;21373;-50
2021/07/20 05:23:31;;;;;;;14.68;12.98;;;;;;;32.04;53.23;100745.11;1620959;88;21077;-50
2021/07/20 05:25:59;;;;;;;20.62;14.45;;;;;;;32.12;53.16;100743.39;1600127;88;22550;-49
2021/07/20 05:28:28;;;;;;;17.30;14.13;;;;;;;32.20;53.17;100748.25;1620740;88;21025;-49
2021/07/20 05:30:57;;;;;;;22.25;14.60;;;;;;;32.28;53.22;100741.49;1621821;88;21086;-49
2021/07/20 05:33:24;;;;;;;19.35;13.28;;;;;;;32.36;53.44;100741.47;1623554;88;21030;-50
2021/07/20 05:35:58;;;;;;;16.82;13.08;;;;;;;32.44;53.52;100743.31;1606541;88;21486;-49
2021/07/20 05:38:29;;;;;;;24.45;12.85;;;;;;;32.53;53.40;100747.66;1620182;88;21585;-53
2021/07/20 05:40:58;;;;;;;27.30;13.98;;;;;;;32.57;53.30;100738.22;1535799;92;21635;-50
2021/07/20 05:43:27;;;;;;;15.03;12.28;;;;;;;32.62;52.96;100737.20;1545639;92;21027;-49
2021/07/20 05:45:57;;;;;;;17.65;13.30;;;;;;;32.69;52.99;100744.89;1542185;93;21131;-48
2021/07/20 05:48:23;;;;;;;17.67;13.20;;;;;;;32.78;53.16;100743.84;1540781;93;21022;-50
2021/07/20 05:50:52;;;;;;;16.77;13.43;;;;;;;32.85;53.12;100741.61;1542055;91;21611;-47
2021/07/20 05:53:30;;;;;;;19.07;13.55;;;;;;;32.95;53.16;100748.64;1541930;91;21052;-46
2021/07/20 05:56:03;;;;;;;16.73;13.35;;;;;;;33.01;52.97;100747.47;1528228;92;21111;-47
2021/07/20 05:58:32;;;;;;;22.27;13.45;;;;;;;33.09;52.88;100750.11;1523342;91;21093;-48
2021/07/20 06:01:03;;;;;;;19.30;13.53;;;;;;;33.17;52.37;100751.40;1541869;92;21130;-47
2021/07/20 06:03:32;;;;;;;17.87;11.80;;;;;;;33.25;52.18;100748.64;1542036;92;21015;-49
2021/07/20 06:05:58;;;;;;;17.73;12.63;;;;;;;33.34;52.02;100754.32;1546906;92;21035;-49
2021/07/20 06:08:27;;;;;;;19.27;13.38;;;;;;;33.41;52.00;100749.86;1522467;91;21103;-49
2021/07/20 06:10:58;;;;;;;27.77;14.25;;;;;;;33.49;52.04;100749.02;1541096;92;21103;-49
2021/07/20 06:13:29;;;;;;;21.85;15.20;;;;;;;33.54;51.75;100751.99;1542095;91;21103;-49
2021/07/20 06:15:56;;;;;;;20.92;13.80;;;;;;;33.58;51.38;100748.75;1542112;93;21102;-47
2021/07/20 06:18:23;;;;;;;16.93;12.70;;;;;;;33.62;51.53;100752.77;1577138;88;21066;-48
2021/07/20 06:20:56;;;;;;;18.52;13.95;;;;;;;33.68;51.55;100755.23;1619602;88;21030;-48
2021/07/20 06:23:24;;;;;;;22.15;13.65;;;;;;;33.75;51.48;100756.70;1623414;87;21073;-51
2021/07/20 06:25:51;;;;;;;18.42;13.78;;;;;;;33.81;51.45;100758.67;1624782;88;21074;-49
2021/07/20 06:28:22;;;;;;;20.75;13.05;;;;;;;33.86;51.26;100761.67;1623790;87;21061;-50
2021/07/20 06:30:49;;;;;;;21.73;13.62;;;;;;;33.88;51.10;100756.93;1627391;87;21581;-49
2021/07/20 06:33:18;;;;;;;23.02;14.33;;;;;;;33.88;51.03;100756.39;1623359;87;21070;-49
2021/07/20 06:35:46;;;;;;;21.80;13.28;;;;;;;33.88;50.94;100756.93;1624626;87;21096;-52
2021/07/20 06:38:21;;;;;;;25.00;13.88;;;;;;;33.85;51.15;100756.78;1611610;88;21105;-49
2021/07/20 06:40:52;;;;;;;34.27;16.07;;;;;;;33.84;51.39;100758.31;1627131;88;21034;-50
2021/07/20 06:43:20;;;;;;;18.20;14.28;;;;;;;33.84;51.37;100755.08;1622469;88;21062;-48
2021/07/20 06:45:49;;;;;;;17.35;13.05;;;;;;;33.85;51.00;100751.88;1606714;87;21050;-50
2021/07/20 06:48:19;;;;;;;15.98;13.48;;;;;;;33.83;51.08;100749.37;1634343;87;21529;-49
2021/07/20 06:50:47;;;;;;;24.87;15.30;;;;;;;33.81;51.30;100750.57;1621697;88;21180;-50
2021/07/20 06:53:14;;;;;;;25.15;14.80;;;;;;;33.79;51.61;100739.97;1638227;86;21127;-48
2021/07/20 06:55:50;;;;;;;23.05;18.17;;;;;;;33.76;51.42;100744.36;1629425;85;21017;-49
2021/07/20 06:58:22;;;;;;;18.12;14.55;;;;;;;33.74;51.61;100746.94;1501527;94;22443;-54
2021/07/20 07:00:56;;;;;;;25.30;15.43;;;;;;;33.74;51.76;100746.94;1490874;94;21563;-52
2021/07/20 07:03:27;;;;;;;19.75;14.75;;;;;;;33.74;51.81;100745.59;1506684;94;21110;-49
2021/07/20 07:05:54;;;;;;;25.97;15.50;;;;;;;33.77;51.67;100745.21;1513573;93;21174;-51
2021/07/20 07:08:22;;;;;;;19.62;14.70;;;;;;;33.80;51.53;100748.38;1518257;93;21077;-50
2021/07/20 07:10:51;;;;;;;19.87;16.07;;;;;;;33.83;51.41;100752.07;1483831;95;21128;-48
2021/07/20 07:13:18;;;;;;;17.82;13.58;;;;;;;33.87;51.37;100748.48;1493908;94;21129;-51
2021/07/20 07:15:45;;;;;;;33.45;16.52;;;;;;;33.90;51.22;100750.83;1502566;94;21134;-51
2021/07/20 07:18:12;;;;;;;23.15;16.15;;;;;;;33.92;51.40;100752.84;1514785;93;21540;-53
2021/07/20 07:20:39;;;;;;;19.10;15.45;;;;;;;33.94;51.27;100750.29;1495702;94;21199;-48
2021/07/20 07:23:06;;;;;;;23.35;14.87;;;;;;;33.97;51.25;100751.25;1508915;93;21624;-50
2021/07/20 07:25:33;;;;;;;24.32;15.68;;;;;;;34.00;51.37;100755.48;1484563;94;21141;-49
2021/07/20 07:28:00;;;;;;;21.40;14.40;;;;;;;34.05;51.05;100751.70;1508109;93;21009;-49
2021/07/20 07:30:27;;;;;;;24.57;16.82;;;;;;;34.09;50.90;100748.45;1479525;95;21645;-50
2021/07/20 07:32:54;;;;;;;20.72;15.53;;;;;;;34.14;51.00;100749.26;1460926;97;21146;-48
2021/07/20 07:35:22;;;;;;;19.87;15.18;;;;;;;34.18;50.96;100748.70;1493286;93;21534;-54
2021/07/20 07:37:49;;;;;;;22.62;14.75;;;;;;;34.23;50.69;100748.97;1517782;94;21676;-50
2021/07/20 07:40:16;;;;;;;18.65;14.50;;;;;;;34.28;50.65;100751.12;1519738;94;21097;-52
2021/07/20 07:42:43;;;;;;;25.37;14.93;;;;;;;34.33;50.64;100744.12;1521902;94;21086;-51
2021/07/20 07:45:11;;;;;;;18.17;15.13;;;;;;;34.36;50.62;100741.06;1504350;94;21147;-49
2021/07/20 07:47:38;;;;;;;24.82;15.35;;;;;;;34.40;50.50;100741.52;1489576;94;21585;-48
2021/07/20 07:50:06;;;;;;;20.55;15.43;;;;;;;34.42;50.34;100734.06;1481270;94;21057;-48
2021/07/20 07:52:35;;;;;;;19.50;14.78;;;;;;;34.42;50.04;100734.06;1520612;94;21137;-49
2021/07/20 07:55:02;;;;;;;25.52;15.13;;;;;;;34.38;50.15;100736.81;1536903;90;22235;-51
2021/07/20 07:57:29;;;;;;;21.02;15.80;;;;;;;34.37;50.45;100735.16;1575386;90;21022;-48
2021/07/20 07:59:58;;;;;;;24.60;16.25;;;;;;;34.37;50.36;100735.16;1537782;91;21164;-51
2021/07/20 08:02:34;;;;;;;19.10;15.10;;;;;;;34.38;50.33;100737.66;1563700;91;21542;-51
2021/07/20 08:05:05;;;;;;;20.72;15.20;;;;;;;34.39;50.39;100738.50;1601664;88;21046;-49
2021/07/20 08:07:33;;;;;;;18.27;15.15;;;;;;;34.39;50.45;100737.16;1614499;87;21517;-47
2021/07/20 08:10:00;;;;;;;21.50;15.88;;;;;;;34.39;50.25;100738.50;1625239;87;21583;-52
2021/07/20 08:12:28;;;;;;;22.85;15.85;;;;;;;34.36;49.99;100735.66;1641625;86;21034;-51
2021/07/20 08:14:57;;;;;;;22.40;15.43;;;;;;;34.36;50.17;100734.81;1596967;88;21040;-51
2021/07/20 08:17:26;;;;;;;17.67;15.72;;;;;;;34.35;50.30;100739.91;1578449;90;21470;-49
2021/07/20 08:19:53;;;;;;;20.45;15.80;;;;;;;34.38;50.23;100732.77;1564993;89;21100;-48
2021/07/20 08:22:22;;;;;;;23.45;14.50;;;;;;;34.40;50.44;100736.11;1570791;90;21116;-48
2021/07/20 08:24:59;;;;;;;21.20;15.68;;;;;;;34.44;50.42;100735.56;1572349;89;21090;-49
2021/07/20 08:27:37;;;;;;;21.10;16.45;;;;;;;34.48;50.09;100733.31;1536368;93;21116;-54
2021/07/20 08:30:06;;;;;;;24.27;16.37;;;;;;;34.52;50.07;100731.94;1553492;91;21581;-51
2021/07/20 08:32:36;;;;;;;20.90;16.10;;;;;;;34.55;50.13;100736.98;1557469;91;21592;-54
2021/07/20 08:35:08;;;;;;;17.57;15.27;;;;;;;34.57;49.97;100733.58;1561189;91;21656;-52
2021/07/20 08:37:36;;;;;;;22.58;16.77;;;;;;;34.60;50.09;100730.52;1547621;91;21065;-48
2021/07/20 08:40:07;;;;;;;21.05;15.72;;;;;;;34.65;49.89;100729.41;1550910;91;21060;-54
2021/07/20 08:43:00;;;;;;;21.35;15.60;;;;;;;34.68;49.77;100720.94;1558147;91;21098;-50
2021/07/20 08:45:33;;;;;;;18.70;15.32;;;;;;;34.72;49.91;100726.80;1504213;93;21200;-52
2021/07/20 08:48:20;;;;;;;17.32;15.38;;;;;;;34.77;49.84;100727.89;1514975;93;21112;-50
2021/07/20 08:51:04;;;;;;;20.43;16.42;;;;;;;34.81;49.63;100733.78;1533812;93;21113;-51
2021/07/20 08:54:04;;;;;;;24.27;15.00;;;;;;;34.84;49.51;100728.82;1525867;93;21629;-48
2021/07/20 08:56:30;;;;;;;17.27;15.18;;;;;;;34.84;49.39;100726.12;1525038;93;21115;-52
2021/07/20 08:59:05;;;;;;;21.77;16.27;;;;;;;34.86;49.47;100722.70;1487883;94;21105;-51
2021/07/20 09:01:49;;;;;;;24.70;16.85;;;;;;;34.88;49.17;100722.00;1511154;93;21671;-53
2021/07/20 09:04:39;;;;;;;21.60;15.60;;;;;;;34.92;49.29;100726.00;1514477;93;21145;-51
2021/07/20 09:07:15;;;;;;;28.98;15.50;;;;;;;34.96;49.33;100719.17;1486121;94;21134;-50
2021/07/20 09:09:47;;;;;;;27.02;15.88;;;;;;;34.99;49.33;100726.11;1496391;95;21142;-51
2021/07/20 09:12:25;;;;;;;20.75;15.75;;;;;;;35.03;49.31;100722.84;1499357;94;21053;-51
2021/07/20 09:15:00;;;;;;;25.45;15.88;;;;;;;35.07;49.24;100717.87;1495350;94;21073;-50
2021/07/20 09:18:05;;;;;;;22.35;14.98;;;;;;;35.10;48.94;100714.25;1492289;94;21114;-52
2021/07/20 09:20:36;;;;;;;21.02;16.67;;;;;;;35.11;49.06;100714.59;1493478;94;23176;-50
2021/07/20 09:23:18;;;;;;;25.27;16.23;;;;;;;35.12;49.29;100717.61;1544076;88;21509;-51
2021/07/20 09:26:11;;;;;;;21.85;15.65;;;;;;;35.15;49.12;100718.59;1543926;92;21072;-49
2021/07/20 09:29:02;;;;;;;19.80;16.05;;;;;;;35.20;49.01;100717.98;1537480;92;21558;-50
2021/07/20 09:31:42;;;;;;;23.55;16.52;;;;;;;35.27;48.81;100718.05;1531437;92;21106;-53
2021/07/20 09:34:33;;;;;;;24.37;16.20;;;;;;;35.30;48.79;100711.76;1536824;92;21040;-52
2021/07/20 09:37:09;;;;;;;23.18;16.12;;;;;;;35.32;48.53;100708.34;1523156;93;21565;-49
2021/07/20 09:39:55;;;;;;;19.65;15.72;;;;;;;35.32;48.73;100714.27;1468980;97;21585;-50
2021/07/20 09:42:43;;;;;;;34.85;24.60;;;;;;;35.30;48.78;100705.00;1472928;97;21129;-52
2021/07/20 09:45:21;;;;;;;19.00;16.60;;;;;;;35.30;48.84;100701.45;1470320;97;21744;-50
2021/07/20 09:47:53;;;;;;;17.23;15.40;;;;;;;35.31;49.05;100705.81;1475236;97;21061;-51
2021/07/20 09:50:21;;;;;;;22.75;15.65;;;;;;;35.30;48.88;100700.09;1461722;97;21164;-51
2021/07/20 09:53:07;;;;;;;22.10;15.78;;;;;;;35.31;49.06;100699.05;1457401;97;21882;-52
2021/07/20 09:56:10;;;;;;;19.23;15.08;;;;;;;35.28;49.39;100692.69;1456961;97;21085;-50
2021/07/20 09:58:45;;;;;;;18.95;14.70;;;;;;;35.28;49.34;100698.09;1458626;97;21138;-54
2021/07/20 10:01:26;;;;;;;23.27;17.55;;;;;;;35.26;49.60;100690.69;1471932;97;21128;-50
2021/07/20 10:04:22;;;;;;;20.35;15.53;;;;;;;35.24;49.64;100691.41;1465832;97;21081;-51
2021/07/20 10:07:31;;;;;;;21.02;15.68;;;;;;;35.25;49.97;100691.70;1472016;97;21090;-49
2021/07/20 10:10:03;;;;;;;17.65;15.18;;;;;;;35.30;49.74;100691.98;1467656;97;21070;-51
2021/07/20 10:12:57;;;;;;;20.23;16.70;;;;;;;35.33;49.84;100684.80;1444478;99;21174;-54
2021/07/20 10:15:35;;;;;;;35.68;16.97;;;;;;;35.37;49.85;100683.38;1437806;98;21117;-50
2021/07/20 10:18:05;;;;;;;19.45;16.15;;;;;;;35.40;49.97;100689.77;1447135;99;21133;-50
2021/07/20 10:20:37;;;;;;;22.07;15.68;;;;;;;35.38;49.71;100670.19;1446339;99;21118;-50
2021/07/20 10:23:18;;;;;;;18.87;15.15;;;;;;;35.36;49.90;100676.31;1492842;93;21073;-51
2021/07/20 10:26:15;;;;;;;33.30;17.98;;;;;;;35.35;50.24;100675.98;1502676;94;21555;-51
2021/07/20 10:29:08;;;;;;;19.27;15.38;;;;;;;35.33;50.28;100669.92;1480646;95;21145;-49
2021/07/20 10:32:07;;;;;;;19.07;14.60;;;;;;;35.31;50.29;100661.17;1472976;96;21124;-49
2021/07/20 10:34:34;;;;;;;22.58;16.07;;;;;;;35.27;50.37;100658.53;1480867;96;21360;-49
2021/07/20 10:37:10;;;;;;;23.02;15.75;;;;;;;35.26;50.62;100659.58;1495497;92;21117;-50
2021/07/20 10:39:41;;;;;;;36.98;26.90;;;;;;;35.31;50.77;100654.41;1512424;94;21067;-50
2021/07/20 10:42:28;;;;;;;22.75;16.40;;;;;;;35.37;50.86;100653.63;1500595;95;21087;-51
2021/07/20 10:45:07;;;;;;;28.10;16.55;;;;;;;35.43;50.43;100655.58;1494211;95;21064;-50
2021/07/20 10:47:45;;;;;;;23.02;15.50;;;;;;;35.47;50.40;100651.47;1470204;97;21122;-51
2021/07/20 10:50:31;;;;;;;20.32;15.15;;;;;;;35.50;50.32;100649.71;1457070;97;21681;-51
2021/07/20 10:53:10;;;;;;;19.20;14.83;;;;;;;35.53;49.97;100642.56;1458240;97;21690;-51
2021/07/20 10:56:19;;;;;;;19.90;15.03;;;;;;;35.52;49.88;100646.29;1441169;98;21085;-50
2021/07/20 10:59:06;;;;;;;20.68;14.70;;;;;;;35.55;49.70;100645.91;1445369;97;21124;-50
2021/07/20 11:02:08;;;;;;;17.50;14.90;;;;;;;35.56;49.86;100644.86;1391645;103;21179;-51
2021/07/20 11:05:05;;;;;;;;;;;;;;;35.57;49.86;100646.00;1361572;103;21156;-53
2021/07/20 11:07:46;;;;;;;19.15;15.55;;;;;;;35.58;49.89;100636.02;1405064;100;20504;-51
2021/07/20 11:10:24;;;;;;;23.38;15.32;;;;;;;35.57;49.85;100639.78;1416061;101;21188;-50
2021/07/20 11:12:56;;;;;;;26.60;15.58;;;;;;;35.55;49.94;100635.09;1411445;100;21082;-53
2021/07/20 11:15:24;;;;;;;16.77;15.03;;;;;;;35.51;50.24;100632.45;1416575;100;21699;-50
2021/07/20 11:17:51;;;;;;;17.82;15.05;;;;;;;35.50;50.54;100635.67;1410056;101;21205;-51
2021/07/20 11:20:21;;;;;;;21.37;16.05;;;;;;;35.51;50.61;100632.45;1417391;100;21258;-50
2021/07/20 11:22:49;;;;;;;18.73;15.88;;;;;;;35.52;50.66;100631.41;1393099;102;21610;-51
2021/07/20 11:25:16;;;;;;;19.15;14.55;;;;;;;35.52;50.76;100628.19;1392141;101;21122;-50
2021/07/20 11:27:45;;;;;;;16.80;14.95;;;;;;;35.53;50.66;100624.97;1385684;102;21110;-51
2021/07/20 11:30:13;;;;;;;17.20;15.40;;;;;;;35.52;50.76;100627.34;1377225;102;21158;-53
2021/07/20 11:32:44;;;;;;;16.62;14.98;;;;;;;35.53;51.12;100626.33;1399733;102;21130;-51
2021/07/20 11:35:17;;;;;;;17.45;15.50;;;;;;;35.54;51.08;100623.92;1391764;101;21094;-49
2021/07/20 11:37:53;;;;;;;16.85;14.90;;;;;;;35.57;51.09;100620.84;1424966;96;21664;-51
2021/07/20 11:40:42;;;;;;;23.27;15.70;;;;;;;35.59;51.07;100613.36;1462622;96;21664;-51